createdAt,value
2017-09-17T00:00:16.440Z,50
2017-09-17T00:01:24.507Z,50
2017-09-17T00:02:32.602Z,50
2017-09-17T00:03:40.686Z,50
2017-09-17T00:04:48.793Z,50
2017-09-17T00:05:56.879Z,50
2017-09-17T00:07:04.968Z,50
2017-09-17T00:08:13.053Z,50
2017-09-17T00:09:21.142Z,50
2017-09-17T00:10:29.228Z,50
2017-09-17T00:11:37.314Z,50
2017-09-17T00:12:45.402Z,50
2017-09-17T00:13:53.487Z,50
2017-09-17T00:15:01.575Z,50
2017-09-17T00:16:09.672Z,50
2017-09-17T00:17:17.753Z,50
2017-09-17T00:18:25.842Z,50
2017-09-17T00:19:33.927Z,50
2017-09-17T00:20:42.013Z,50
2017-09-17T00:21:50.110Z,50
2017-09-17T00:22:58.196Z,50
2017-09-17T00:24:06.284Z,50
2017-09-17T00:25:14.370Z,49
2017-09-17T00:26:22.483Z,50
2017-09-17T00:27:30.555Z,50
2017-09-17T00:28:38.640Z,50
2017-09-17T00:29:46.728Z,50
2017-09-17T00:30:54.815Z,50
2017-09-17T00:32:02.904Z,50
2017-09-17T00:33:10.990Z,49
2017-09-17T00:34:19.076Z,50
2017-09-17T00:35:27.165Z,50
2017-09-17T00:36:35.250Z,50
2017-09-17T00:37:43.337Z,50
2017-09-17T00:38:51.424Z,50
2017-09-17T00:39:59.511Z,49
2017-09-17T00:41:07.607Z,50
2017-09-17T00:42:15.687Z,50
2017-09-17T00:43:23.773Z,50
2017-09-17T00:44:31.957Z,50
2017-09-17T00:45:39.946Z,50
2017-09-17T00:46:48.044Z,49
2017-09-17T00:47:56.119Z,50
2017-09-17T00:49:04.207Z,50
2017-09-17T00:50:12.294Z,50
2017-09-17T00:51:20.381Z,50
2017-09-17T00:52:28.472Z,50
2017-09-17T00:53:36.557Z,50
2017-09-17T00:54:44.644Z,50
2017-09-17T00:55:52.728Z,50
2017-09-17T00:57:00.814Z,49
2017-09-17T00:58:08.901Z,50
2017-09-17T00:59:16.992Z,50
2017-09-17T01:00:25.076Z,49
2017-09-17T01:01:33.163Z,50
2017-09-17T01:02:41.251Z,50
2017-09-17T01:03:49.337Z,50
2017-09-17T01:04:57.424Z,49
2017-09-17T01:06:05.524Z,49
2017-09-17T01:07:13.616Z,50
2017-09-17T01:08:21.744Z,50
2017-09-17T01:09:29.786Z,50
2017-09-17T01:10:37.877Z,49
2017-09-17T01:11:45.959Z,50
2017-09-17T01:12:54.045Z,50
2017-09-17T01:14:02.133Z,50
2017-09-17T01:15:10.219Z,50
2017-09-17T01:16:18.308Z,50
2017-09-17T01:17:26.395Z,50
2017-09-17T01:18:34.483Z,50
2017-09-17T01:19:42.569Z,50
2017-09-17T01:20:50.655Z,50
2017-09-17T01:21:58.741Z,50
2017-09-17T01:23:06.829Z,50
2017-09-17T01:24:14.915Z,50
2017-09-17T01:25:23.002Z,50
2017-09-17T01:26:31.088Z,49
2017-09-17T01:27:39.187Z,49
2017-09-17T01:28:47.280Z,49
2017-09-17T01:29:55.365Z,50
2017-09-17T01:31:03.458Z,49
2017-09-17T01:32:11.530Z,50
2017-09-17T01:33:19.620Z,50
2017-09-17T01:34:27.712Z,50
2017-09-17T01:35:35.793Z,50
2017-09-17T01:36:43.879Z,50
2017-09-17T01:37:51.966Z,50
2017-09-17T01:39:00.052Z,50
2017-09-17T01:40:08.143Z,50
2017-09-17T01:41:16.225Z,50
2017-09-17T01:42:24.313Z,50
2017-09-17T01:43:32.399Z,50
2017-09-17T01:44:40.484Z,50
2017-09-17T01:45:48.572Z,50
2017-09-17T01:46:56.658Z,50
2017-09-17T01:48:04.745Z,50
2017-09-17T01:49:12.831Z,50
2017-09-17T01:50:20.923Z,50
2017-09-17T01:51:29.003Z,50
2017-09-17T01:52:37.090Z,50
2017-09-17T01:53:45.182Z,50
2017-09-17T01:54:53.264Z,50
2017-09-17T01:56:01.351Z,50
2017-09-17T01:57:09.438Z,50
2017-09-17T01:58:17.524Z,50
2017-09-17T01:59:25.613Z,50
2017-09-17T02:00:33.697Z,50
2017-09-17T02:01:41.786Z,50
2017-09-17T02:02:49.871Z,50
2017-09-17T02:03:57.979Z,50
2017-09-17T02:05:06.069Z,50
2017-09-17T02:06:14.175Z,50
2017-09-17T02:07:22.243Z,50
2017-09-17T02:08:30.331Z,50
2017-09-17T02:09:38.442Z,50
2017-09-17T02:10:46.513Z,50
2017-09-17T02:11:54.596Z,50
2017-09-17T02:13:02.685Z,50
2017-09-17T02:14:10.772Z,49
2017-09-17T02:15:18.859Z,50
2017-09-17T02:16:26.946Z,50
2017-09-17T02:17:35.031Z,50
2017-09-17T02:18:43.118Z,50
2017-09-17T02:19:51.203Z,50
2017-09-17T02:20:59.289Z,50
2017-09-17T02:22:07.375Z,50
2017-09-17T02:23:15.462Z,49
2017-09-17T02:24:23.560Z,50
2017-09-17T02:25:31.634Z,50
2017-09-17T02:26:39.723Z,50
2017-09-17T02:27:47.810Z,50
2017-09-17T02:28:55.896Z,50
2017-09-17T02:30:03.982Z,50
2017-09-17T02:31:12.066Z,50
2017-09-17T02:32:20.152Z,50
2017-09-17T02:33:28.239Z,49
2017-09-17T02:34:36.412Z,49
2017-09-17T02:35:44.498Z,50
2017-09-17T02:36:52.585Z,49
2017-09-17T02:38:00.672Z,50
2017-09-17T02:39:08.758Z,49
2017-09-17T02:40:16.844Z,49
2017-09-17T02:41:24.931Z,49
2017-09-17T02:42:33.016Z,49
2017-09-17T02:43:41.102Z,49
2017-09-17T02:44:49.189Z,49
2017-09-17T02:45:57.275Z,49
2017-09-17T02:47:05.608Z,49
2017-09-17T02:48:13.689Z,49
2017-09-17T02:49:21.784Z,49
2017-09-17T02:50:29.870Z,49
2017-09-17T02:51:37.955Z,49
2017-09-17T02:52:46.040Z,49
2017-09-17T02:53:54.127Z,49
2017-09-17T02:55:02.212Z,49
2017-09-17T02:56:10.300Z,49
2017-09-17T02:57:18.384Z,49
2017-09-17T02:58:26.471Z,49
2017-09-17T02:59:34.558Z,49
2017-09-17T03:00:42.646Z,49
2017-09-17T03:01:50.730Z,49
2017-09-17T03:02:58.815Z,49
2017-09-17T03:04:06.903Z,49
2017-09-17T03:05:14.995Z,49
2017-09-17T03:06:23.073Z,49
2017-09-17T03:07:31.170Z,49
2017-09-17T03:08:39.254Z,49
2017-09-17T03:09:47.342Z,49
2017-09-17T03:10:55.423Z,49
2017-09-17T03:12:03.510Z,49
2017-09-17T03:13:11.596Z,49
2017-09-17T03:14:19.683Z,48
2017-09-17T03:15:27.771Z,49
2017-09-17T03:16:35.855Z,49
2017-09-17T03:17:43.949Z,48
2017-09-17T03:18:52.036Z,49
2017-09-17T03:20:00.113Z,49
2017-09-17T03:21:08.265Z,49
2017-09-17T03:22:16.284Z,48
2017-09-17T03:23:24.370Z,49
2017-09-17T03:24:32.614Z,49
2017-09-17T03:25:40.678Z,49
2017-09-17T03:26:48.762Z,49
2017-09-17T03:27:56.848Z,49
2017-09-17T03:29:04.932Z,49
2017-09-17T03:30:13.026Z,49
2017-09-17T03:31:21.110Z,49
2017-09-17T03:32:29.192Z,49
2017-09-17T03:33:37.277Z,49
2017-09-17T03:34:45.363Z,49
2017-09-17T03:35:53.451Z,49
2017-09-17T03:37:01.535Z,49
2017-09-17T03:38:09.621Z,49
2017-09-17T03:39:17.705Z,49
2017-09-17T03:40:25.795Z,49
2017-09-17T03:41:33.879Z,49
2017-09-17T03:42:41.969Z,49
2017-09-17T03:43:50.051Z,49
2017-09-17T03:44:58.141Z,48
2017-09-17T03:46:06.223Z,48
2017-09-17T03:47:14.309Z,48
2017-09-17T03:48:22.393Z,48
2017-09-17T03:49:30.483Z,48
2017-09-17T03:50:38.569Z,48
2017-09-17T03:51:46.650Z,48
2017-09-17T03:52:54.739Z,48
2017-09-17T03:54:02.831Z,48
2017-09-17T03:55:10.910Z,49
2017-09-17T03:56:18.996Z,48
2017-09-17T03:57:27.081Z,48
2017-09-17T03:58:35.165Z,49
2017-09-17T03:59:43.270Z,49
2017-09-17T04:00:51.339Z,48
2017-09-17T04:01:59.424Z,48
2017-09-17T04:03:07.516Z,48
2017-09-17T04:04:15.596Z,49
2017-09-17T04:05:23.682Z,49
2017-09-17T04:06:31.768Z,48
2017-09-17T04:07:39.853Z,48
2017-09-17T04:08:47.947Z,49
2017-09-17T04:09:56.034Z,49
2017-09-17T04:11:04.119Z,49
2017-09-17T04:12:12.214Z,48
2017-09-17T04:13:20.293Z,48
2017-09-17T04:14:28.396Z,49
2017-09-17T04:15:36.586Z,49
2017-09-17T04:16:44.558Z,48
2017-09-17T04:17:52.652Z,48
2017-09-17T04:19:00.738Z,48
2017-09-17T04:20:08.827Z,48
2017-09-17T04:21:16.919Z,49
2017-09-17T04:22:24.998Z,48
2017-09-17T04:23:33.085Z,48
2017-09-17T04:24:41.170Z,48
2017-09-17T04:25:49.257Z,49
2017-09-17T04:26:57.343Z,49
2017-09-17T04:28:05.432Z,49
2017-09-17T04:29:13.511Z,49
2017-09-17T04:30:21.596Z,49
2017-09-17T04:31:29.683Z,49
2017-09-17T04:32:37.767Z,49
2017-09-17T04:33:45.852Z,49
2017-09-17T04:34:53.948Z,49
2017-09-17T04:36:02.036Z,49
2017-09-17T04:37:10.120Z,49
2017-09-17T04:38:18.205Z,49
2017-09-17T04:39:26.289Z,49
2017-09-17T04:40:34.374Z,49
2017-09-17T04:41:42.461Z,49
2017-09-17T04:42:50.546Z,49
2017-09-17T04:43:58.631Z,49
2017-09-17T04:45:06.719Z,49
2017-09-17T04:46:14.802Z,49
2017-09-17T04:47:22.888Z,49
2017-09-17T04:48:30.977Z,49
2017-09-17T04:49:39.058Z,49
2017-09-17T04:50:47.166Z,49
2017-09-17T04:51:55.258Z,49
2017-09-17T04:53:03.336Z,49
2017-09-17T04:54:11.423Z,49
2017-09-17T04:55:19.509Z,49
2017-09-17T04:56:27.596Z,49
2017-09-17T04:57:35.681Z,49
2017-09-17T04:58:43.766Z,49
2017-09-17T04:59:51.851Z,49
2017-09-17T05:00:59.938Z,49
2017-09-17T05:02:08.021Z,49
2017-09-17T05:03:16.107Z,49
2017-09-17T05:04:24.192Z,49
2017-09-17T05:05:32.276Z,49
2017-09-17T05:06:40.364Z,49
2017-09-17T05:07:48.449Z,49
2017-09-17T05:08:56.533Z,49
2017-09-17T05:10:04.622Z,49
2017-09-17T05:11:12.707Z,49
2017-09-17T05:12:20.789Z,49
2017-09-17T05:13:28.875Z,49
2017-09-17T05:14:37.073Z,49
2017-09-17T05:15:45.156Z,48
2017-09-17T05:16:53.241Z,49
2017-09-17T05:18:01.328Z,49
2017-09-17T05:19:09.414Z,49
2017-09-17T05:20:17.502Z,49
2017-09-17T05:21:25.585Z,49
2017-09-17T05:22:33.671Z,49
2017-09-17T05:23:41.754Z,49
2017-09-17T05:24:49.839Z,49
2017-09-17T05:25:57.923Z,49
2017-09-17T05:27:06.033Z,49
2017-09-17T05:28:14.100Z,49
2017-09-17T05:29:22.184Z,49
2017-09-17T05:30:30.269Z,49
2017-09-17T05:31:38.356Z,49
2017-09-17T05:32:47.125Z,49
2017-09-17T05:33:54.525Z,49
2017-09-17T05:35:02.611Z,49
2017-09-17T05:36:10.698Z,49
2017-09-17T05:37:18.783Z,50
2017-09-17T05:38:26.866Z,50
2017-09-17T05:39:34.956Z,50
2017-09-17T05:40:43.038Z,49
2017-09-17T05:41:51.123Z,50
2017-09-17T05:42:59.208Z,49
2017-09-17T05:44:07.292Z,49
2017-09-17T05:45:15.376Z,49
2017-09-17T05:46:23.750Z,50
2017-09-17T05:47:31.625Z,50
2017-09-17T05:48:39.633Z,50
2017-09-17T05:49:48.208Z,50
2017-09-17T05:50:55.823Z,50
2017-09-17T05:52:03.909Z,50
2017-09-17T05:53:12.328Z,50
2017-09-17T05:54:20.100Z,49
2017-09-17T05:55:28.265Z,49
2017-09-17T05:56:36.286Z,50
2017-09-17T05:57:44.455Z,50
2017-09-17T05:58:53.063Z,50
2017-09-17T06:00:01.206Z,50
2017-09-17T06:01:08.592Z,50
2017-09-17T06:02:16.702Z,50
2017-09-17T06:03:24.847Z,50
2017-09-17T06:04:32.882Z,50
2017-09-17T06:05:41.008Z,50
2017-09-17T06:06:49.020Z,50
2017-09-17T06:07:57.130Z,50
2017-09-17T06:09:05.266Z,50
2017-09-17T06:10:13.274Z,50
2017-09-17T06:11:21.359Z,50
2017-09-17T06:12:29.446Z,50
2017-09-17T06:13:37.532Z,50
2017-09-17T06:14:45.619Z,50
2017-09-17T06:15:53.712Z,50
2017-09-17T06:17:01.792Z,50
2017-09-17T06:18:09.875Z,50
2017-09-17T06:19:18.108Z,50
2017-09-17T06:20:26.136Z,50
2017-09-17T06:21:34.214Z,50
2017-09-17T06:22:42.217Z,50
2017-09-17T06:23:50.721Z,50
2017-09-17T06:24:58.407Z,50
2017-09-17T06:26:06.477Z,50
2017-09-17T06:27:14.708Z,50
2017-09-17T06:28:22.645Z,50
2017-09-17T06:29:30.732Z,50
2017-09-17T06:30:38.818Z,50
2017-09-17T06:31:46.975Z,50
2017-09-17T06:32:54.988Z,50
2017-09-17T06:34:03.074Z,50
2017-09-17T06:35:11.577Z,50
2017-09-17T06:36:19.363Z,50
2017-09-17T06:37:27.515Z,50
2017-09-17T06:38:35.643Z,50
2017-09-17T06:39:43.501Z,50
2017-09-17T06:40:51.590Z,50
2017-09-17T06:41:59.887Z,50
2017-09-17T06:43:07.763Z,50
2017-09-17T06:44:15.986Z,50
2017-09-17T06:45:23.927Z,50
2017-09-17T06:46:32.013Z,50
2017-09-17T06:47:40.099Z,50
2017-09-17T06:48:48.184Z,51
2017-09-17T06:49:56.269Z,50
2017-09-17T06:51:04.358Z,51
2017-09-17T06:52:12.446Z,50
2017-09-17T06:53:20.534Z,51
2017-09-17T06:54:28.616Z,50
2017-09-17T06:55:37.205Z,50
2017-09-17T06:56:44.786Z,50
2017-09-17T06:57:52.870Z,50
2017-09-17T06:59:00.957Z,50
2017-09-17T07:00:09.092Z,50
2017-09-17T07:01:17.179Z,50
2017-09-17T07:02:25.262Z,50
2017-09-17T07:03:33.427Z,50
2017-09-17T07:04:41.703Z,50
2017-09-17T07:05:52.107Z,50
2017-09-17T07:06:57.624Z,50
2017-09-17T07:08:05.749Z,50
2017-09-17T07:09:13.891Z,50
2017-09-17T07:10:21.861Z,50
2017-09-17T07:11:29.945Z,50
2017-09-17T07:12:38.131Z,51
2017-09-17T07:13:46.147Z,50
2017-09-17T07:14:54.306Z,50
2017-09-17T07:16:02.361Z,50
2017-09-17T07:17:10.459Z,50
2017-09-17T07:18:18.519Z,50
2017-09-17T07:19:26.640Z,50
2017-09-17T07:20:34.696Z,50
2017-09-17T07:21:42.715Z,50
2017-09-17T07:22:50.819Z,50
2017-09-17T07:23:58.884Z,50
2017-09-17T07:25:06.970Z,50
2017-09-17T07:26:15.061Z,50
2017-09-17T07:27:23.145Z,50
2017-09-17T07:28:31.587Z,50
2017-09-17T07:29:39.594Z,50
2017-09-17T07:30:47.412Z,50
2017-09-17T07:31:55.507Z,50
2017-09-17T07:33:03.593Z,50
2017-09-17T07:34:11.679Z,50
2017-09-17T07:35:20.285Z,51
2017-09-17T07:36:27.999Z,50
2017-09-17T07:37:36.614Z,50
2017-09-17T07:38:44.631Z,50
2017-09-17T07:39:52.142Z,50
2017-09-17T07:41:00.226Z,51
2017-09-17T07:42:08.311Z,51
2017-09-17T07:43:16.417Z,51
2017-09-17T07:44:24.481Z,51
2017-09-17T07:45:32.566Z,51
2017-09-17T07:46:40.653Z,51
2017-09-17T07:47:48.737Z,51
2017-09-17T07:48:57.539Z,51
2017-09-17T07:50:05.210Z,51
2017-09-17T07:51:13.134Z,51
2017-09-17T07:52:21.292Z,51
2017-09-17T07:53:29.357Z,51
2017-09-17T07:54:37.264Z,51
2017-09-17T07:55:45.345Z,51
2017-09-17T07:56:53.431Z,51
2017-09-17T07:58:01.515Z,51
2017-09-17T07:59:09.610Z,51
2017-09-17T08:00:17.694Z,51
2017-09-17T08:01:25.782Z,51
2017-09-17T08:02:33.867Z,51
2017-09-17T08:03:41.953Z,51
2017-09-17T08:04:50.036Z,51
2017-09-17T08:05:58.121Z,51
2017-09-17T08:07:06.206Z,51
2017-09-17T08:08:14.292Z,51
2017-09-17T08:09:22.385Z,51
2017-09-17T08:10:30.463Z,51
2017-09-17T08:11:38.550Z,51
2017-09-17T08:12:46.634Z,51
2017-09-17T08:13:54.727Z,51
2017-09-17T08:15:02.805Z,50
2017-09-17T08:16:10.953Z,51
2017-09-17T08:17:19.038Z,51
2017-09-17T08:18:27.125Z,51
2017-09-17T08:19:35.210Z,51
2017-09-17T08:20:43.311Z,51
2017-09-17T08:21:51.378Z,51
2017-09-17T08:22:59.464Z,51
2017-09-17T08:24:07.551Z,51
2017-09-17T08:25:15.645Z,51
2017-09-17T08:26:23.722Z,51
2017-09-17T08:27:31.808Z,51
2017-09-17T08:28:39.907Z,51
2017-09-17T08:29:47.978Z,50
2017-09-17T08:30:56.061Z,51
2017-09-17T08:32:04.146Z,51
2017-09-17T08:33:12.233Z,51
2017-09-17T08:34:20.317Z,51
2017-09-17T08:35:28.401Z,51
2017-09-17T08:36:36.487Z,51
2017-09-17T08:37:44.574Z,51
2017-09-17T08:38:52.667Z,51
2017-09-17T08:40:00.752Z,50
2017-09-17T08:41:08.828Z,51
2017-09-17T08:42:16.920Z,51
2017-09-17T08:43:25.005Z,51
2017-09-17T08:44:33.091Z,51
2017-09-17T08:45:41.178Z,51
2017-09-17T08:46:49.265Z,51
2017-09-17T08:47:57.349Z,50
2017-09-17T08:49:05.436Z,51
2017-09-17T08:50:13.524Z,50
2017-09-17T08:51:21.608Z,51
2017-09-17T08:52:29.711Z,51
2017-09-17T08:53:37.899Z,51
2017-09-17T08:54:45.883Z,51
2017-09-17T08:55:53.967Z,51
2017-09-17T08:57:02.053Z,51
2017-09-17T08:58:10.140Z,51
2017-09-17T08:59:18.268Z,51
2017-09-17T09:00:26.311Z,51
2017-09-17T09:01:34.395Z,51
2017-09-17T09:02:42.479Z,51
2017-09-17T09:03:50.564Z,51
2017-09-17T09:04:58.650Z,51
2017-09-17T09:06:06.734Z,51
2017-09-17T09:07:14.820Z,51
2017-09-17T09:08:22.905Z,51
2017-09-17T09:09:30.995Z,51
2017-09-17T09:10:39.076Z,51
2017-09-17T09:11:47.162Z,51
2017-09-17T09:12:55.247Z,51
2017-09-17T09:14:03.338Z,51
2017-09-17T09:15:11.563Z,51
2017-09-17T09:16:19.652Z,51
2017-09-17T09:17:27.737Z,51
2017-09-17T09:18:35.819Z,51
2017-09-17T09:19:43.910Z,51
2017-09-17T09:20:52.004Z,51
2017-09-17T09:22:00.122Z,51
2017-09-17T09:23:08.159Z,51
2017-09-17T09:24:16.245Z,51
2017-09-17T09:25:24.334Z,51
2017-09-17T09:26:32.417Z,51
2017-09-17T09:27:40.499Z,51
2017-09-17T09:28:48.584Z,51
2017-09-17T09:29:56.669Z,51
2017-09-17T09:31:04.763Z,51
2017-09-17T09:32:12.841Z,51
2017-09-17T09:33:21.005Z,51
2017-09-17T09:34:29.010Z,51
2017-09-17T09:35:37.146Z,51
2017-09-17T09:36:45.706Z,51
2017-09-17T09:37:53.791Z,51
2017-09-17T09:39:01.871Z,51
2017-09-17T09:40:09.976Z,51
2017-09-17T09:41:18.052Z,51
2017-09-17T09:42:26.140Z,51
2017-09-17T09:43:34.250Z,51
2017-09-17T09:44:42.305Z,51
2017-09-17T09:45:50.398Z,51
2017-09-17T09:46:58.477Z,51
2017-09-17T09:48:06.563Z,51
2017-09-17T09:49:14.666Z,51
2017-09-17T09:50:22.737Z,51
2017-09-17T09:51:30.900Z,51
2017-09-17T09:52:38.903Z,51
2017-09-17T09:53:46.988Z,51
2017-09-17T09:54:55.074Z,51
2017-09-17T09:56:03.157Z,51
2017-09-17T09:57:11.245Z,51
2017-09-17T09:58:19.329Z,51
2017-09-17T09:59:27.412Z,51
2017-09-17T10:00:35.566Z,51
2017-09-17T10:01:43.584Z,51
2017-09-17T10:02:51.669Z,51
2017-09-17T10:03:59.756Z,51
2017-09-17T10:05:07.836Z,51
2017-09-17T10:06:15.929Z,52
2017-09-17T10:07:24.008Z,51
2017-09-17T10:08:32.093Z,51
2017-09-17T10:09:40.179Z,51
2017-09-17T10:10:48.264Z,51
2017-09-17T10:11:56.348Z,51
2017-09-17T10:13:04.433Z,52
2017-09-17T10:14:12.518Z,51
2017-09-17T10:15:20.604Z,51
2017-09-17T10:16:28.688Z,52
2017-09-17T10:17:36.774Z,52
2017-09-17T10:18:44.860Z,51
2017-09-17T10:19:52.955Z,52
2017-09-17T10:21:01.030Z,52
2017-09-17T10:22:09.116Z,52
2017-09-17T10:23:17.201Z,52
2017-09-17T10:24:25.286Z,52
2017-09-17T10:25:33.369Z,52
2017-09-17T10:26:41.455Z,52
2017-09-17T10:27:49.541Z,52
2017-09-17T10:28:57.626Z,52
2017-09-17T10:30:05.726Z,52
2017-09-17T10:31:13.802Z,52
2017-09-17T10:32:21.888Z,52
2017-09-17T10:33:29.972Z,52
2017-09-17T10:34:38.058Z,52
2017-09-17T10:35:46.145Z,52
2017-09-17T10:36:54.226Z,52
2017-09-17T10:38:02.312Z,52
2017-09-17T10:39:10.407Z,52
2017-09-17T10:40:18.502Z,52
2017-09-17T10:41:26.577Z,52
2017-09-17T10:42:34.690Z,52
2017-09-17T10:43:42.758Z,52
2017-09-17T10:44:50.842Z,52
2017-09-17T10:45:58.928Z,52
2017-09-17T10:47:07.011Z,52
2017-09-17T10:48:15.097Z,52
2017-09-17T10:49:23.180Z,52
2017-09-17T10:50:31.268Z,52
2017-09-17T10:51:39.352Z,52
2017-09-17T10:52:47.457Z,52
2017-09-17T10:53:55.522Z,53
2017-09-17T10:55:03.609Z,52
2017-09-17T10:56:11.691Z,52
2017-09-17T10:57:19.778Z,52
2017-09-17T10:58:27.886Z,53
2017-09-17T10:59:35.950Z,52
2017-09-17T11:00:44.142Z,53
2017-09-17T11:01:52.229Z,53
2017-09-17T11:03:00.313Z,53
2017-09-17T11:04:08.398Z,53
2017-09-17T11:05:16.483Z,53
2017-09-17T11:06:24.573Z,53
2017-09-17T11:07:32.659Z,53
2017-09-17T11:08:40.747Z,53
2017-09-17T11:09:48.826Z,53
2017-09-17T11:10:56.914Z,53
2017-09-17T11:12:05.004Z,53
2017-09-17T11:13:13.107Z,53
2017-09-17T11:14:21.182Z,53
2017-09-17T11:15:29.265Z,53
2017-09-17T11:16:37.345Z,54
2017-09-17T11:17:45.431Z,54
2017-09-17T11:18:53.514Z,53
2017-09-17T11:20:01.600Z,53
2017-09-17T11:21:09.687Z,54
2017-09-17T11:22:17.773Z,54
2017-09-17T11:23:25.858Z,54
2017-09-17T11:24:33.942Z,54
2017-09-17T11:25:42.027Z,54
2017-09-17T11:26:50.116Z,54
2017-09-17T11:27:58.203Z,54
2017-09-17T11:29:06.390Z,54
2017-09-17T11:30:15.063Z,54
2017-09-17T11:31:22.562Z,54
2017-09-17T11:32:30.690Z,54
2017-09-17T11:33:39.092Z,54
2017-09-17T11:34:47.178Z,54
2017-09-17T11:35:55.264Z,54
2017-09-17T11:37:03.356Z,55
2017-09-17T11:38:11.438Z,54
2017-09-17T11:39:19.524Z,54
2017-09-17T11:40:27.611Z,54
2017-09-17T11:41:35.693Z,55
2017-09-17T11:42:43.788Z,54
2017-09-17T11:43:51.864Z,54
2017-09-17T11:44:59.949Z,54
2017-09-17T11:46:08.036Z,54
2017-09-17T11:47:16.120Z,55
2017-09-17T11:48:24.205Z,54
2017-09-17T11:49:32.296Z,54
2017-09-17T11:50:40.376Z,54
2017-09-17T11:51:48.460Z,54
2017-09-17T11:52:56.546Z,54
2017-09-17T11:54:04.632Z,55
2017-09-17T11:55:12.720Z,54
2017-09-17T11:56:20.802Z,55
2017-09-17T11:57:28.888Z,54
2017-09-17T11:58:36.980Z,55
2017-09-17T11:59:45.110Z,55
2017-09-17T12:00:53.152Z,55
2017-09-17T12:02:01.237Z,55
2017-09-17T12:03:09.324Z,55
2017-09-17T12:04:17.408Z,55
2017-09-17T12:05:25.492Z,55
2017-09-17T12:06:33.580Z,54
2017-09-17T12:07:41.665Z,55
2017-09-17T12:08:49.751Z,55
2017-09-17T12:09:57.846Z,54
2017-09-17T12:11:05.944Z,54
2017-09-17T12:12:14.037Z,54
2017-09-17T12:13:22.122Z,54
2017-09-17T12:14:30.207Z,54
2017-09-17T12:15:38.294Z,54
2017-09-17T12:16:46.383Z,54
2017-09-17T12:17:54.469Z,54
2017-09-17T12:19:02.548Z,54
2017-09-17T12:20:10.636Z,54
2017-09-17T12:21:18.719Z,54
2017-09-17T12:22:26.805Z,54
2017-09-17T12:23:34.906Z,54
2017-09-17T12:24:42.977Z,54
2017-09-17T12:25:51.070Z,54
2017-09-17T12:26:59.155Z,54
2017-09-17T12:28:07.241Z,54
2017-09-17T12:29:15.335Z,54
2017-09-17T12:30:23.418Z,54
2017-09-17T12:31:31.499Z,54
2017-09-17T12:32:39.585Z,54
2017-09-17T12:33:47.671Z,54
2017-09-17T12:34:55.755Z,54
2017-09-17T12:36:03.840Z,54
2017-09-17T12:37:11.928Z,54
2017-09-17T12:38:20.014Z,54
2017-09-17T12:39:28.107Z,54
2017-09-17T12:40:36.184Z,54
2017-09-17T12:41:44.270Z,54
2017-09-17T12:42:52.356Z,54
2017-09-17T12:44:00.442Z,54
2017-09-17T12:45:08.545Z,54
2017-09-17T12:46:16.630Z,54
2017-09-17T12:47:24.718Z,54
2017-09-17T12:48:32.859Z,54
2017-09-17T12:49:40.947Z,54
2017-09-17T12:50:49.033Z,54
2017-09-17T12:51:57.118Z,54
2017-09-17T12:53:05.205Z,54
2017-09-17T12:54:13.291Z,54
2017-09-17T12:55:21.375Z,54
2017-09-17T12:56:29.461Z,54
2017-09-17T12:57:37.547Z,54
2017-09-17T12:58:45.632Z,54
2017-09-17T12:59:53.716Z,54
2017-09-17T13:01:01.806Z,54
2017-09-17T13:02:09.890Z,54
2017-09-17T13:03:17.982Z,54
2017-09-17T13:04:26.081Z,54
2017-09-17T13:05:34.150Z,54
2017-09-17T13:06:42.236Z,54
2017-09-17T13:07:50.320Z,54
2017-09-17T13:08:58.406Z,54
2017-09-17T13:10:06.582Z,54
2017-09-17T13:11:14.580Z,54
2017-09-17T13:12:22.666Z,54
2017-09-17T13:13:30.752Z,54
2017-09-17T13:14:38.838Z,54
2017-09-17T13:15:46.922Z,54
2017-09-17T13:16:55.016Z,54
2017-09-17T13:18:03.094Z,54
2017-09-17T13:19:11.180Z,54
2017-09-17T13:20:19.269Z,54
2017-09-17T13:21:27.363Z,54
2017-09-17T13:22:35.438Z,54
2017-09-17T13:23:43.528Z,53
2017-09-17T13:24:51.613Z,54
2017-09-17T13:25:59.698Z,54
2017-09-17T13:27:07.786Z,54
2017-09-17T13:28:15.877Z,54
2017-09-17T13:29:23.956Z,54
2017-09-17T13:30:32.067Z,54
2017-09-17T13:31:40.138Z,54
2017-09-17T13:32:48.231Z,54
2017-09-17T13:33:56.308Z,54
2017-09-17T13:35:04.392Z,54
2017-09-17T13:36:12.498Z,54
2017-09-17T13:37:20.567Z,54
2017-09-17T13:38:28.664Z,54
2017-09-17T13:39:36.755Z,54
2017-09-17T13:40:44.836Z,54
2017-09-17T13:41:52.918Z,54
2017-09-17T13:43:01.003Z,54
2017-09-17T13:44:09.093Z,54
2017-09-17T13:45:17.175Z,54
2017-09-17T13:46:25.262Z,54
2017-09-17T13:47:33.349Z,54
2017-09-17T13:48:41.434Z,54
2017-09-17T13:49:49.520Z,54
2017-09-17T13:50:57.787Z,54
2017-09-17T13:52:05.874Z,54
2017-09-17T13:53:13.959Z,54
2017-09-17T13:54:22.046Z,53
2017-09-17T13:55:30.141Z,53
2017-09-17T13:56:38.218Z,53
2017-09-17T13:57:46.304Z,53
2017-09-17T13:58:54.390Z,53
2017-09-17T14:00:02.479Z,53
2017-09-17T14:01:10.570Z,53
2017-09-17T14:02:18.649Z,54
2017-09-17T14:03:26.737Z,54
2017-09-17T14:04:34.822Z,53
2017-09-17T14:05:42.909Z,54
2017-09-17T14:06:51.000Z,54
2017-09-17T14:07:59.080Z,53
2017-09-17T14:09:07.169Z,54
2017-09-17T14:10:15.255Z,53
2017-09-17T14:11:23.341Z,53
2017-09-17T14:12:31.428Z,54
2017-09-17T14:13:39.514Z,53
2017-09-17T14:14:47.600Z,53
2017-09-17T14:15:55.686Z,53
2017-09-17T14:17:03.772Z,53
2017-09-17T14:18:11.859Z,53
2017-09-17T14:19:19.953Z,53
2017-09-17T14:20:28.039Z,53
2017-09-17T14:21:36.127Z,53
2017-09-17T14:22:44.216Z,53
2017-09-17T14:23:52.299Z,53
2017-09-17T14:25:00.385Z,53
2017-09-17T14:26:08.469Z,53
2017-09-17T14:27:16.554Z,53
2017-09-17T14:28:24.648Z,53
2017-09-17T14:29:32.735Z,53
2017-09-17T14:30:40.828Z,54
2017-09-17T14:31:48.908Z,53
2017-09-17T14:32:56.997Z,53
2017-09-17T14:34:05.079Z,53
2017-09-17T14:35:13.171Z,54
2017-09-17T14:36:21.251Z,54
2017-09-17T14:37:29.349Z,53
2017-09-17T14:38:37.423Z,53
2017-09-17T14:39:45.526Z,53
2017-09-17T14:40:53.616Z,53
2017-09-17T14:42:01.699Z,53
2017-09-17T14:43:09.785Z,53
2017-09-17T14:44:17.871Z,53
2017-09-17T14:45:25.957Z,53
2017-09-17T14:46:34.047Z,53
2017-09-17T14:47:42.132Z,53
2017-09-17T14:48:50.219Z,53
2017-09-17T14:49:58.307Z,53
2017-09-17T14:51:06.389Z,53
2017-09-17T14:52:14.479Z,53
2017-09-17T14:53:22.564Z,53
2017-09-17T14:54:30.661Z,53
2017-09-17T14:55:38.738Z,53
2017-09-17T14:56:46.826Z,53
2017-09-17T14:57:54.911Z,53
2017-09-17T14:59:03.000Z,53
2017-09-17T15:00:11.083Z,53
2017-09-17T15:01:19.169Z,53
2017-09-17T15:02:27.255Z,53
2017-09-17T15:03:35.360Z,53
2017-09-17T15:04:43.433Z,53
2017-09-17T15:05:51.515Z,53
2017-09-17T15:06:59.603Z,53
2017-09-17T15:08:07.688Z,53
2017-09-17T15:09:15.772Z,52
2017-09-17T15:10:23.861Z,53
2017-09-17T15:11:31.945Z,53
2017-09-17T15:12:40.036Z,53
2017-09-17T15:13:48.119Z,53
2017-09-17T15:14:56.204Z,53
2017-09-17T15:16:04.290Z,53
2017-09-17T15:17:12.377Z,53
2017-09-17T15:18:20.465Z,53
2017-09-17T15:19:28.549Z,53
2017-09-17T15:20:36.640Z,53
2017-09-17T15:21:44.722Z,52
2017-09-17T15:22:52.810Z,53
2017-09-17T15:24:00.897Z,53
2017-09-17T15:25:08.983Z,53
2017-09-17T15:26:17.069Z,53
2017-09-17T15:27:25.156Z,53
2017-09-17T15:28:33.250Z,53
2017-09-17T15:29:41.327Z,53
2017-09-17T15:30:49.413Z,53
2017-09-17T15:31:57.503Z,53
2017-09-17T15:33:05.590Z,53
2017-09-17T15:34:13.674Z,53
2017-09-17T15:35:21.759Z,53
2017-09-17T15:36:29.846Z,53
2017-09-17T15:37:37.931Z,53
2017-09-17T15:38:46.069Z,53
2017-09-17T15:39:54.102Z,53
2017-09-17T15:41:02.189Z,53
2017-09-17T15:42:10.278Z,53
2017-09-17T15:43:18.366Z,53
2017-09-17T15:44:27.095Z,53
2017-09-17T15:45:34.540Z,53
2017-09-17T15:46:42.995Z,53
2017-09-17T15:47:51.387Z,53
2017-09-17T15:48:58.878Z,54
2017-09-17T15:50:06.879Z,53
2017-09-17T15:51:14.968Z,53
2017-09-17T15:52:24.430Z,53
2017-09-17T15:53:31.143Z,53
2017-09-17T15:54:39.318Z,53
2017-09-17T15:55:47.325Z,53
2017-09-17T15:56:55.402Z,53
2017-09-17T15:58:03.488Z,54
2017-09-17T15:59:11.574Z,53
2017-09-17T16:00:19.661Z,53
2017-09-17T16:01:29.365Z,53
2017-09-17T16:02:36.449Z,53
2017-09-17T16:03:44.121Z,53
2017-09-17T16:04:52.013Z,53
2017-09-17T16:06:00.384Z,53
2017-09-17T16:07:08.186Z,53
2017-09-17T16:08:17.038Z,53
2017-09-17T16:09:24.361Z,53
2017-09-17T16:10:33.702Z,53